Time;durP1;ratioP1;P1;durP2;ratioP2;P2;SDS_P1;SDS_P2;PMS_P1;PMS_P2;Temp;Humidity;BMP_temperature;BMP_pressure;BME280_temperature;BME280_humidity;BME280_pressure;Samples;Min_cycle;Max_cycle;Signal;HPM_P1;HPM_P2
2022/11/20 00:01:32;;;;;;;;;23.50;18.00;;;;;;;;114928;1208;25860;-75
2022/11/20 00:04:01;;;;;;;;;13.00;12.00;;;;;;;;114935;1200;25359;-75
2022/11/20 00:06:30;;;;;;;;;17.00;16.50;;;;;;;;114936;1203;25461;-75
2022/11/20 00:09:01;;;;;;;;;24.00;18.00;;;;;;;;114899;1201;25618;-75
2022/11/20 00:11:31;;;;;;;;;18.50;15.50;;;;;;;;114864;1208;24862;-75
2022/11/20 00:14:01;;;;;;;;;24.50;19.00;;;;;;;;114893;1203;25727;-73
2022/11/20 00:16:31;;;;;;;;;17.00;16.00;;;;;;;;114945;1200;24975;-73
2022/11/20 00:18:59;;;;;;;;;19.00;18.00;;;;;;;;114949;1196;25220;-73
2022/11/20 00:21:30;;;;;;;;;24.00;19.00;;;;;;;;114861;1200;24921;-75
2022/11/20 00:23:59;;;;;;;;;19.00;17.00;;;;;;;;114906;1199;25024;-73
2022/11/20 00:26:28;;;;;;;;;18.00;17.50;;;;;;;;114880;1200;25589;-75
2022/11/20 00:28:59;;;;;;;;;16.50;16.50;;;;;;;;114931;1203;25588;-75
2022/11/20 00:31:28;;;;;;;;;17.00;17.00;;;;;;;;114939;1199;25518;-75
2022/11/20 00:33:56;;;;;;;;;19.00;16.00;;;;;;;;114945;1203;24749;-75
2022/11/20 00:36:27;;;;;;;;;19.00;18.00;;;;;;;;114951;1201;25168;-75
2022/11/20 00:38:57;;;;;;;;;20.00;18.00;;;;;;;;114938;1203;25422;-75
2022/11/20 00:41:27;;;;;;;;;18.00;18.00;;;;;;;;114979;1200;25151;-75
2022/11/20 00:43:56;;;;;;;;;18.67;16.00;;;;;;;;114907;1208;25225;-75
2022/11/20 00:46:26;;;;;;;;;16.50;16.00;;;;;;;;114951;1198;25266;-75
2022/11/20 00:48:55;;;;;;;;;15.67;14.33;;;;;;;;114937;1200;25494;-75
2022/11/20 00:51:27;;;;;;;;;17.50;15.50;;;;;;;;114933;1203;25409;-74
2022/11/20 00:53:57;;;;;;;;;19.00;17.00;;;;;;;;114936;1207;25341;-75
2022/11/20 00:56:25;;;;;;;;;21.00;16.00;;;;;;;;114931;1207;25182;-77
2022/11/20 00:58:54;;;;;;;;;14.50;12.50;;;;;;;;114896;1189;24706;-75
2022/11/20 01:01:25;;;;;;;;;18.00;16.00;;;;;;;;114891;1207;24634;-83
2022/11/20 01:03:55;;;;;;;;;19.00;17.00;;;;;;;;114859;1199;24954;-78
2022/11/20 01:06:35;;;;;;;;;17.50;15.00;;;;;;;;114859;1203;25713;-76
2022/11/20 01:09:06;;;;;;;;;18.50;14.50;;;;;;;;114978;1203;25464;-74
2022/11/20 01:11:37;;;;;;;;;16.00;12.00;;;;;;;;114930;1205;25403;-74
2022/11/20 01:14:07;;;;;;;;;18.00;16.00;;;;;;;;114906;1197;25318;-76
2022/11/20 01:16:40;;;;;;;;;17.00;15.50;;;;;;;;114917;1203;24689;-76
2022/11/20 01:19:14;;;;;;;;;17.00;14.00;;;;;;;;114931;1204;24804;-76
2022/11/20 01:21:50;;;;;;;;;13.50;12.00;;;;;;;;114927;1200;25306;-76
2022/11/20 01:24:19;;;;;;;;;15.00;14.00;;;;;;;;114874;1206;24895;-76
2022/11/20 01:26:49;;;;;;;;;15.00;15.00;;;;;;;;114901;1200;25624;-75
2022/11/20 01:29:21;;;;;;;;;16.00;16.00;;;;;;;;114954;1200;25051;-76
2022/11/20 01:31:52;;;;;;;;;19.00;15.00;;;;;;;;114961;1194;25356;-74
2022/11/20 01:34:22;;;;;;;;;17.00;15.00;;;;;;;;114918;1202;25396;-73
2022/11/20 01:36:52;;;;;;;;;21.00;16.00;;;;;;;;114926;1200;24671;-76
2022/11/20 01:39:23;;;;;;;;;18.00;17.00;;;;;;;;114894;1204;24853;-74
2022/11/20 01:45:00;;;;;;;;;17.67;14.67;;;;;;;;114909;1203;26220;-74
2022/11/20 01:47:28;;;;;;;;;21.00;17.00;;;;;;;;114903;1206;25640;-76
2022/11/20 01:50:21;;;;;;;;;17.00;14.00;;;;;;;;114939;1203;25951;-76
2022/11/20 01:53:07;;;;;;;;;14.50;14.50;;;;;;;;114813;1200;25567;-76
2022/11/20 01:55:40;;;;;;;;;18.00;17.00;;;;;;;;114952;1207;24711;-74
2022/11/20 01:58:08;;;;;;;;;18.50;18.50;;;;;;;;114976;1206;25605;-77
2022/11/20 02:00:36;;;;;;;;;17.00;17.00;;;;;;;;114885;1196;24826;-78
2022/11/20 02:03:13;;;;;;;;;19.00;17.50;;;;;;;;114991;1203;24804;-78
2022/11/20 02:06:08;;;;;;;;;16.00;15.50;;;;;;;;114889;1200;25432;-75
2022/11/20 02:08:37;;;;;;;;;20.50;18.00;;;;;;;;114928;1203;24968;-76
2022/11/20 02:11:06;;;;;;;;;20.00;18.50;;;;;;;;114897;1208;24961;-76
2022/11/20 02:13:44;;;;;;;;;16.50;14.00;;;;;;;;114893;1198;24978;-76
2022/11/20 02:16:21;;;;;;;;;13.00;12.00;;;;;;;;114928;1200;26323;-76
2022/11/20 02:18:51;;;;;;;;;14.33;14.33;;;;;;;;114892;1200;25699;-75
2022/11/20 02:21:34;;;;;;;;;17.00;15.00;;;;;;;;114949;1200;24955;-76
2022/11/20 02:24:09;;;;;;;;;20.00;13.00;;;;;;;;114915;1200;25904;-76
2022/11/20 02:26:43;;;;;;;;;15.00;13.50;;;;;;;;114938;1206;24844;-76
2022/11/20 02:29:11;;;;;;;;;17.00;17.00;;;;;;;;114961;1200;24714;-76
2022/11/20 02:31:42;;;;;;;;;18.00;14.00;;;;;;;;114953;1199;25510;-76
2022/11/20 02:34:11;;;;;;;;;15.00;12.00;;;;;;;;114956;1199;25235;-76
2022/11/20 02:36:41;;;;;;;;;17.33;16.00;;;;;;;;114959;1206;25414;-76
2022/11/20 02:39:12;;;;;;;;;16.00;13.00;;;;;;;;114922;1200;24874;-76
2022/11/20 02:41:40;;;;;;;;;15.00;13.00;;;;;;;;114943;1208;25258;-76
2022/11/20 02:44:09;;;;;;;;;14.00;13.00;;;;;;;;114921;1200;25230;-76
2022/11/20 02:46:37;;;;;;;;;15.50;14.00;;;;;;;;114957;1196;24990;-76
2022/11/20 02:49:06;;;;;;;;;15.33;14.00;;;;;;;;114923;1201;24707;-76
2022/11/20 02:51:34;;;;;;;;;14.00;13.00;;;;;;;;114918;1200;24881;-76
2022/11/20 02:54:03;;;;;;;;;14.00;12.00;;;;;;;;114897;1199;25116;-76
2022/11/20 02:56:31;;;;;;;;;15.50;13.00;;;;;;;;114942;1194;25525;-76
2022/11/20 02:58:59;;;;;;;;;13.00;11.00;;;;;;;;114880;1200;25111;-76
2022/11/20 03:01:28;;;;;;;;;14.00;12.50;;;;;;;;114956;1208;25079;-76
2022/11/20 03:03:56;;;;;;;;;10.33;9.33;;;;;;;;114919;1203;24932;-76
2022/11/20 03:06:25;;;;;;;;;18.00;13.67;;;;;;;;114971;1199;25511;-76
2022/11/20 03:08:53;;;;;;;;;8.00;7.67;;;;;;;;114940;1200;25015;-76
2022/11/20 03:11:22;;;;;;;;;13.00;12.50;;;;;;;;114934;1208;25556;-76
2022/11/20 03:13:50;;;;;;;;;13.00;11.50;;;;;;;;114764;1206;24854;-76
2022/11/20 03:16:20;;;;;;;;;13.50;10.50;;;;;;;;114830;1200;24938;-77
2022/11/20 03:18:49;;;;;;;;;14.00;14.00;;;;;;;;114860;1199;25273;-77
2022/11/20 03:21:17;;;;;;;;;10.33;10.33;;;;;;;;114810;1200;25023;-75
2022/11/20 03:23:46;;;;;;;;;16.00;14.67;;;;;;;;114919;1200;24876;-77
2022/11/20 03:26:23;;;;;;;;;12.00;12.00;;;;;;;;114931;1200;24855;-76
2022/11/20 03:28:53;;;;;;;;;16.00;15.00;;;;;;;;114974;1197;25324;-75
2022/11/20 03:31:24;;;;;;;;;14.50;14.50;;;;;;;;114964;1208;25175;-77
2022/11/20 03:33:53;;;;;;;;;16.00;13.00;;;;;;;;114945;1208;25051;-76
2022/11/20 03:36:21;;;;;;;;;9.00;7.00;;;;;;;;114839;1200;25162;-73
2022/11/20 03:38:50;;;;;;;;;9.67;9.00;;;;;;;;114905;1203;24930;-76
2022/11/20 03:41:21;;;;;;;;;15.00;15.00;;;;;;;;114850;1203;24959;-75
2022/11/20 03:43:57;;;;;;;;;12.50;11.00;;;;;;;;114949;1200;25624;-75
2022/11/20 03:46:26;;;;;;;;;15.00;11.00;;;;;;;;114941;1203;25043;-76
2022/11/20 03:48:55;;;;;;;;;12.00;10.00;;;;;;;;114900;1199;25655;-76
2022/11/20 03:51:26;;;;;;;;;9.00;9.00;;;;;;;;114893;1200;25309;-75
2022/11/20 03:53:56;;;;;;;;;14.00;10.00;;;;;;;;114845;1208;25521;-75
2022/11/20 03:56:30;;;;;;;;;9.00;8.50;;;;;;;;114938;1197;24757;-76
2022/11/20 03:58:59;;;;;;;;;12.00;11.00;;;;;;;;114912;1206;25338;-76
2022/11/20 04:01:30;;;;;;;;;12.00;12.00;;;;;;;;114958;1208;25461;-77
2022/11/20 04:03:58;;;;;;;;;10.00;10.00;;;;;;;;114911;1200;25391;-76
2022/11/20 04:06:34;;;;;;;;;12.00;11.00;;;;;;;;114925;1208;25055;-77
2022/11/20 04:09:04;;;;;;;;;13.00;11.33;;;;;;;;114800;1203;25118;-76
2022/11/20 04:11:34;;;;;;;;;10.50;7.00;;;;;;;;114890;1196;25362;-76
2022/11/20 04:14:05;;;;;;;;;9.00;9.00;;;;;;;;114939;1202;25391;-76
2022/11/20 04:16:35;;;;;;;;;13.50;9.50;;;;;;;;114959;1208;25053;-76
2022/11/20 04:19:06;;;;;;;;;14.00;12.00;;;;;;;;114953;1203;24925;-76
2022/11/20 04:21:34;;;;;;;;;8.67;7.33;;;;;;;;114863;1198;25143;-74
2022/11/20 04:24:03;;;;;;;;;9.00;7.00;;;;;;;;114952;1199;25491;-76
2022/11/20 04:26:32;;;;;;;;;10.00;10.00;;;;;;;;114932;1203;25298;-76
2022/11/20 04:29:03;;;;;;;;;14.67;8.67;;;;;;;;114932;1199;24920;-75
2022/11/20 04:31:34;;;;;;;;;9.00;8.00;;;;;;;;114880;1200;24862;-83
2022/11/20 04:34:05;;;;;;;;;9.00;9.00;;;;;;;;114936;1208;25561;-78
2022/11/20 04:36:34;;;;;;;;;13.50;10.00;;;;;;;;114829;1206;25010;-78
2022/11/20 04:39:05;;;;;;;;;12.50;10.00;;;;;;;;114818;1203;24675;-75
2022/11/20 04:41:35;;;;;;;;;11.00;10.00;;;;;;;;114911;1206;25243;-76
2022/11/20 04:44:05;;;;;;;;;9.00;9.00;;;;;;;;114933;1199;25004;-76
2022/11/20 04:46:36;;;;;;;;;11.00;10.00;;;;;;;;114978;1198;24961;-69
2022/11/20 04:49:05;;;;;;;;;5.00;5.00;;;;;;;;114885;1208;24865;-76
2022/11/20 04:51:33;;;;;;;;;9.00;8.33;;;;;;;;114908;1199;24904;-76
2022/11/20 04:54:02;;;;;;;;;9.00;7.50;;;;;;;;114844;1200;25178;-76
2022/11/20 04:56:30;;;;;;;;;11.00;11.00;;;;;;;;114903;1207;25665;-75
2022/11/20 04:59:02;;;;;;;;;7.00;7.00;;;;;;;;114881;1208;25360;-76
2022/11/20 05:01:32;;;;;;;;;7.00;7.00;;;;;;;;114956;1203;25539;-75
2022/11/20 05:04:00;;;;;;;;;6.00;6.00;;;;;;;;114930;1203;24884;-75
2022/11/20 05:06:29;;;;;;;;;6.67;6.33;;;;;;;;114914;1203;25541;-76
2022/11/20 05:08:58;;;;;;;;;11.00;8.33;;;;;;;;114958;1206;24937;-76
2022/11/20 05:11:28;;;;;;;;;9.00;8.50;;;;;;;;114965;1203;25277;-76
2022/11/20 05:13:58;;;;;;;;;8.33;8.00;;;;;;;;114942;1200;25671;-76
2022/11/20 05:16:27;;;;;;;;;7.00;7.00;;;;;;;;114948;1207;25468;-76
2022/11/20 05:18:56;;;;;;;;;9.00;7.00;;;;;;;;114945;1197;25609;-77
2022/11/20 05:21:24;;;;;;;;;11.50;9.00;;;;;;;;114992;1199;25604;-76
2022/11/20 05:23:53;;;;;;;;;7.50;7.50;;;;;;;;114895;1203;25194;-76
2022/11/20 05:26:22;;;;;;;;;8.00;7.00;;;;;;;;114963;1203;25469;-75
2022/11/20 05:28:51;;;;;;;;;8.50;7.50;;;;;;;;114957;1199;24795;-77
2022/11/20 05:31:22;;;;;;;;;9.50;7.00;;;;;;;;114877;1193;25280;-76
2022/11/20 05:33:56;;;;;;;;;6.50;6.50;;;;;;;;114895;1200;25453;-76
2022/11/20 05:36:25;;;;;;;;;8.00;6.00;;;;;;;;114892;1194;24852;-76
2022/11/20 05:38:53;;;;;;;;;7.33;7.33;;;;;;;;114907;1200;25251;-77
2022/11/20 05:41:29;;;;;;;;;9.00;7.50;;;;;;;;114944;1198;24834;-76
2022/11/20 05:43:58;;;;;;;;;8.33;7.00;;;;;;;;114930;1197;24845;-76
2022/11/20 05:46:27;;;;;;;;;9.00;9.00;;;;;;;;114986;1203;25043;-76
2022/11/20 05:48:57;;;;;;;;;8.00;7.00;;;;;;;;114928;1199;25176;-76
2022/11/20 05:51:26;;;;;;;;;8.67;5.67;;;;;;;;114768;1206;25360;-76
2022/11/20 05:53:58;;;;;;;;;6.67;6.67;;;;;;;;114964;1198;25578;-77
2022/11/20 05:56:26;;;;;;;;;9.00;7.00;;;;;;;;114937;1197;24813;-76
2022/11/20 05:58:56;;;;;;;;;9.00;7.00;;;;;;;;114959;1203;25700;-77
2022/11/20 06:01:25;;;;;;;;;7.00;5.00;;;;;;;;114955;1200;25668;-76
2022/11/20 06:03:54;;;;;;;;;8.00;7.00;;;;;;;;114961;1208;25480;-76
2022/11/20 06:06:23;;;;;;;;;6.33;6.33;;;;;;;;114963;1203;26217;-77
2022/11/20 06:08:51;;;;;;;;;6.50;6.50;;;;;;;;114949;1200;24824;-76
2022/11/20 06:11:20;;;;;;;;;6.00;6.00;;;;;;;;114907;1199;25363;-77
2022/11/20 06:13:48;;;;;;;;;7.00;6.25;;;;;;;;114963;1208;25576;-76
2022/11/20 06:16:18;;;;;;;;;5.50;5.50;;;;;;;;114925;1200;24966;-78
2022/11/20 06:18:47;;;;;;;;;8.00;6.00;;;;;;;;114880;1198;25517;-78
2022/11/20 06:21:18;;;;;;;;;5.00;5.00;;;;;;;;114850;1206;25345;-76
2022/11/20 06:23:47;;;;;;;;;5.50;5.00;;;;;;;;114904;1197;24732;-70
2022/11/20 06:26:24;;;;;;;;;7.00;7.00;;;;;;;;114943;1200;25169;-69
2022/11/20 06:28:55;;;;;;;;;7.00;7.00;;;;;;;;114862;1203;25236;-74
2022/11/20 06:31:25;;;;;;;;;6.00;6.00;;;;;;;;114820;1206;26315;-67
2022/11/20 06:33:54;;;;;;;;;6.25;6.00;;;;;;;;114932;1207;25034;-63
2022/11/20 06:36:23;;;;;;;;;7.00;7.00;;;;;;;;114820;1200;25542;-58
2022/11/20 06:38:51;;;;;;;;;5.67;5.67;;;;;;;;114819;1197;25440;-63
2022/11/20 06:41:21;;;;;;;;;4.50;4.50;;;;;;;;114957;1203;25145;-58
2022/11/20 06:43:50;;;;;;;;;6.33;6.33;;;;;;;;114893;1200;25435;-57
2022/11/20 06:46:19;;;;;;;;;7.00;5.00;;;;;;;;114949;1200;24870;-56
2022/11/20 06:48:48;;;;;;;;;9.00;8.00;;;;;;;;114911;1200;24780;-59
2022/11/20 06:51:17;;;;;;;;;9.00;9.00;;;;;;;;114951;1199;25630;-59
2022/11/20 06:53:46;;;;;;;;;7.67;7.67;;;;;;;;114867;1208;24870;-58
2022/11/20 06:56:14;;;;;;;;;5.50;5.50;;;;;;;;114967;1203;25057;-57
2022/11/20 06:58:43;;;;;;;;;8.00;6.00;;;;;;;;114897;1200;25533;-59
2022/11/20 07:01:13;;;;;;;;;10.33;5.33;;;;;;;;114825;1200;25404;-58
2022/11/20 07:03:42;;;;;;;;;6.33;5.00;;;;;;;;114896;1203;24804;-58
2022/11/20 07:06:10;;;;;;;;;4.50;4.00;;;;;;;;114945;1198;25009;-58
2022/11/20 07:08:39;;;;;;;;;4.00;4.00;;;;;;;;114873;1203;25222;-58
2022/11/20 07:11:08;;;;;;;;;9.00;6.67;;;;;;;;114890;1204;24733;-59
2022/11/20 07:13:36;;;;;;;;;8.00;5.00;;;;;;;;114969;1203;25694;-58
2022/11/20 07:16:07;;;;;;;;;6.33;6.33;;;;;;;;114943;1203;26305;-57
2022/11/20 07:18:36;;;;;;;;;10.00;6.00;;;;;;;;114906;1201;25164;-58
2022/11/20 07:21:06;;;;;;;;;6.67;6.00;;;;;;;;114932;1203;25209;-58
2022/11/20 07:23:35;;;;;;;;;10.75;9.25;;;;;;;;114837;1199;25730;-58
2022/11/20 07:26:05;;;;;;;;;9.00;6.50;;;;;;;;114928;1200;25606;-59
2022/11/20 07:28:34;;;;;;;;;0.00;0.00;;;;;;;;114903;1207;25650;-58
2022/11/20 07:31:03;;;;;;;;;10.00;7.00;;;;;;;;114927;1203;25164;-59
2022/11/20 07:33:32;;;;;;;;;7.67;7.67;;;;;;;;114808;1206;25092;-59
2022/11/20 07:36:01;;;;;;;;;9.00;7.00;;;;;;;;114849;1208;25365;-59
2022/11/20 07:38:29;;;;;;;;;11.00;9.00;;;;;;;;114880;1201;25794;-59
2022/11/20 07:40:57;;;;;;;;;11.50;8.00;;;;;;;;114905;1204;25033;-58
2022/11/20 07:43:26;;;;;;;;;6.00;6.00;;;;;;;;114890;1200;24757;-59
2022/11/20 07:45:58;;;;;;;;;12.00;11.00;;;;;;;;114878;1203;25547;-62
2022/11/20 07:48:26;;;;;;;;;9.00;7.00;;;;;;;;114881;1204;25383;-56
2022/11/20 07:50:56;;;;;;;;;9.00;9.00;;;;;;;;114884;1208;24869;-66
2022/11/20 07:53:24;;;;;;;;;9.00;9.00;;;;;;;;114935;1196;25064;-55
2022/11/20 07:55:53;;;;;;;;;8.00;7.00;;;;;;;;114891;1208;25039;-56
2022/11/20 07:58:21;;;;;;;;;8.00;5.00;;;;;;;;114854;1200;25628;-57
2022/11/20 08:00:50;;;;;;;;;9.00;9.00;;;;;;;;114914;1199;24800;-57
2022/11/20 08:03:18;;;;;;;;;8.50;7.50;;;;;;;;114821;1208;25500;-60
2022/11/20 08:05:52;;;;;;;;;8.00;7.00;;;;;;;;116298;1200;25080;-60
2022/11/20 08:08:22;;;;;;;;;8.00;8.00;;;;;;;;114862;1199;25262;-59
2022/11/20 08:10:51;;;;;;;;;9.00;6.50;;;;;;;;114935;1203;24808;-56
2022/11/20 08:16:06;;;;;;;;;9.00;7.00;;;;;;;;114882;1200;25570;-58
2022/11/20 08:18:34;;;;;;;;;7.50;6.50;;;;;;;;114923;1200;25592;-57
2022/11/20 08:21:04;;;;;;;;;8.67;7.33;;;;;;;;114894;1203;25157;-58
2022/11/20 08:23:32;;;;;;;;;7.67;6.67;;;;;;;;114902;1199;25460;-57
2022/11/20 08:26:01;;;;;;;;;7.00;6.00;;;;;;;;114903;1206;25509;-57
2022/11/20 08:28:29;;;;;;;;;6.75;6.25;;;;;;;;114942;1200;25552;-58
2022/11/20 08:31:01;;;;;;;;;5.00;5.00;;;;;;;;114904;1204;24767;-58
2022/11/20 08:33:30;;;;;;;;;8.00;6.00;;;;;;;;114929;1204;25178;-56
2022/11/20 08:36:05;;;;;;;;;9.00;5.00;;;;;;;;114868;1200;25052;-59
2022/11/20 08:38:33;;;;;;;;;8.00;8.00;;;;;;;;114870;1196;25170;-58
2022/11/20 08:43:54;;;;;;;;;7.00;6.00;;;;;;;;114832;1203;25376;-57
2022/11/20 08:46:26;;;;;;;;;6.00;6.00;;;;;;;;114847;1208;24737;-58
2022/11/20 08:48:55;;;;;;;;;7.00;7.00;;;;;;;;114877;1203;25533;-58
2022/11/20 08:51:23;;;;;;;;;5.00;5.00;;;;;;;;114854;1204;24941;-56
2022/11/20 08:53:51;;;;;;;;;9.50;5.50;;;;;;;;114929;1206;25025;-56
2022/11/20 08:56:20;;;;;;;;;6.50;6.50;;;;;;;;114898;1200;25180;-56
2022/11/20 08:58:51;;;;;;;;;6.67;5.33;;;;;;;;114854;1200;25407;-56
2022/11/20 09:01:39;;;;;;;;;6.50;5.75;;;;;;;;114836;1208;25643;-57
2022/11/20 09:04:08;;;;;;;;;6.67;6.00;;;;;;;;114834;1206;25396;-57
2022/11/20 09:06:36;;;;;;;;;10.00;8.00;;;;;;;;114928;1197;25302;-57
2022/11/20 09:09:05;;;;;;;;;8.00;7.50;;;;;;;;114827;1204;25657;-57
2022/11/20 09:11:35;;;;;;;;;9.33;6.00;;;;;;;;114910;1203;25495;-57
2022/11/20 09:14:04;;;;;;;;;9.00;8.00;;;;;;;;114906;1208;25319;-57
2022/11/20 09:16:32;;;;;;;;;8.00;8.00;;;;;;;;114916;1208;25061;-57
2022/11/20 09:19:01;;;;;;;;;8.00;8.00;;;;;;;;114891;1200;24833;-56
2022/11/20 09:21:50;;;;;;;;;10.00;8.00;;;;;;;;114868;1200;25712;-57
2022/11/20 09:24:23;;;;;;;;;10.00;8.00;;;;;;;;114916;1203;24921;-57
2022/11/20 09:26:52;;;;;;;;;8.00;8.00;;;;;;;;114830;1208;25269;-62
2022/11/20 09:29:20;;;;;;;;;6.00;4.50;;;;;;;;114780;1199;25788;-57
2022/11/20 09:31:49;;;;;;;;;8.00;7.00;;;;;;;;114872;1206;25291;-56
2022/11/20 09:34:17;;;;;;;;;5.33;5.00;;;;;;;;114928;1206;24724;-56
2022/11/20 09:36:46;;;;;;;;;11.00;7.50;;;;;;;;114851;1200;24963;-66
2022/11/20 09:39:15;;;;;;;;;9.00;8.00;;;;;;;;114925;1203;25540;-58
2022/11/20 09:41:59;;;;;;;;;11.00;8.00;;;;;;;;114883;1200;25986;-58
2022/11/20 09:44:50;;;;;;;;;10.33;8.67;;;;;;;;114915;1208;25600;-61
2022/11/20 09:47:38;;;;;;;;;9.50;8.00;;;;;;;;114907;1203;25043;-59
2022/11/20 09:50:19;;;;;;;;;20.00;14.00;;;;;;;;114895;1203;25034;-58
2022/11/20 09:53:00;;;;;;;;;47.67;34.67;;;;;;;;114905;1205;24759;-60
2022/11/20 09:55:31;;;;;;;;;60.00;42.50;;;;;;;;114939;1200;24844;-57
2022/11/20 09:57:59;;;;;;;;;69.00;49.00;;;;;;;;114948;1199;25023;-58
2022/11/20 10:00:29;;;;;;;;;70.00;50.00;;;;;;;;114963;1200;25042;-59
2022/11/20 10:03:06;;;;;;;;;84.00;71.00;;;;;;;;114820;1200;25477;-61
2022/11/20 10:05:45;;;;;;;;;76.00;59.00;;;;;;;;114903;1200;24874;-62
2022/11/20 10:08:19;;;;;;;;;64.00;48.50;;;;;;;;114854;1203;25343;-63
2022/11/20 10:11:04;;;;;;;;;61.00;46.00;;;;;;;;114840;1193;24904;-62
2022/11/20 10:13:40;;;;;;;;;51.00;42.00;;;;;;;;114836;1202;25685;-60
2022/11/20 10:16:34;;;;;;;;;48.33;37.33;;;;;;;;114891;1196;25367;-66
2022/11/20 10:19:15;;;;;;;;;43.00;37.00;;;;;;;;114837;1200;25576;-62
2022/11/20 10:22:02;;;;;;;;;45.50;37.00;;;;;;;;114838;1199;25006;-67
2022/11/20 10:25:08;;;;;;;;;48.00;33.00;;;;;;;;114892;1199;24870;-59
2022/11/20 10:27:53;;;;;;;;;46.50;34.00;;;;;;;;114693;1200;25854;-57
2022/11/20 10:30:24;;;;;;;;;42.00;36.00;;;;;;;;114869;1203;24818;-60
2022/11/20 10:33:00;;;;;;;;;41.00;33.00;;;;;;;;114817;1206;25615;-59
2022/11/20 10:35:31;;;;;;;;;;;;;;;;;;114872;1203;25331;-61
2022/11/20 10:38:03;;;;;;;;;34.00;30.50;;;;;;;;114899;1203;25334;-61
2022/11/20 10:40:38;;;;;;;;;35.00;27.50;;;;;;;;114834;1200;26071;-62
2022/11/20 10:43:15;;;;;;;;;44.00;33.00;;;;;;;;114871;1205;25507;-76
2022/11/20 10:45:55;;;;;;;;;35.00;28.00;;;;;;;;114923;1193;25441;-66
2022/11/20 10:48:26;;;;;;;;;33.00;28.00;;;;;;;;114900;1200;25634;-73
2022/11/20 10:51:37;;;;;;;;;30.00;23.00;;;;;;;;114893;1206;25553;-64
2022/11/20 10:54:40;;;;;;;;;33.00;30.00;;;;;;;;114766;1203;25324;-72
2022/11/20 10:57:24;;;;;;;;;34.00;28.50;;;;;;;;114850;1208;25668;-69
2022/11/20 11:00:06;;;;;;;;;35.00;31.00;;;;;;;;114907;1200;24830;-73
2022/11/20 11:02:41;;;;;;;;;35.50;27.50;;;;;;;;114886;1199;24747;-58
2022/11/20 11:05:39;;;;;;;;;38.00;29.00;;;;;;;;114833;1197;25209;-56
2022/11/20 11:08:14;;;;;;;;;33.00;29.00;;;;;;;;114804;1208;25655;-62
2022/11/20 11:10:51;;;;;;;;;29.00;24.00;;;;;;;;114856;1202;25389;-61
2022/11/20 11:13:20;;;;;;;;;27.00;21.50;;;;;;;;114839;1197;25540;-61
2022/11/20 11:15:49;;;;;;;;;32.00;25.50;;;;;;;;114880;1200;25067;-61
2022/11/20 11:18:34;;;;;;;;;27.50;22.00;;;;;;;;114891;1199;25699;-73
2022/11/20 11:21:04;;;;;;;;;23.00;17.00;;;;;;;;114876;1203;24967;-64
2022/11/20 11:23:41;;;;;;;;;26.00;21.50;;;;;;;;114831;1202;25317;-66
2022/11/20 11:26:23;;;;;;;;;27.00;23.00;;;;;;;;114919;1201;25152;-60
2022/11/20 11:28:58;;;;;;;;;26.00;23.00;;;;;;;;114874;1204;25410;-64
2022/11/20 11:31:29;;;;;;;;;28.50;23.50;;;;;;;;114923;1200;25437;-64
2022/11/20 11:34:15;;;;;;;;;27.00;22.50;;;;;;;;114816;1199;25116;-61
2022/11/20 11:36:57;;;;;;;;;23.00;21.00;;;;;;;;114852;1196;25483;-64
2022/11/20 11:39:27;;;;;;;;;25.00;21.00;;;;;;;;114902;1203;24982;-58
2022/11/20 11:41:56;;;;;;;;;23.50;19.50;;;;;;;;114868;1199;25015;-59
2022/11/20 11:47:25;;;;;;;;;16.00;14.00;;;;;;;;114930;1200;25401;-63
2022/11/20 11:50:08;;;;;;;;;29.00;21.50;;;;;;;;114851;1200;25492;-66
2022/11/20 11:52:59;;;;;;;;;23.00;18.00;;;;;;;;114831;1208;25026;-64
2022/11/20 11:55:33;;;;;;;;;22.50;18.00;;;;;;;;114891;1208;26086;-60
2022/11/20 11:58:27;;;;;;;;;19.50;18.50;;;;;;;;114934;1203;25598;-62
2022/11/20 12:01:05;;;;;;;;;26.00;22.00;;;;;;;;114825;1204;25089;-61
2022/11/20 12:03:43;;;;;;;;;19.00;16.00;;;;;;;;114832;1200;25140;-63
2022/11/20 12:06:14;;;;;;;;;17.00;11.00;;;;;;;;114795;1199;25659;-64
2022/11/20 12:08:47;;;;;;;;;20.00;15.00;;;;;;;;114945;1200;24933;-59
2022/11/20 12:11:47;;;;;;;;;18.50;16.00;;;;;;;;114922;1200;25130;-60
2022/11/20 12:14:30;;;;;;;;;21.00;14.00;;;;;;;;114864;1196;25084;-61
2022/11/20 12:17:00;;;;;;;;;17.00;16.00;;;;;;;;114921;1199;24787;-60
2022/11/20 12:19:34;;;;;;;;;22.00;17.00;;;;;;;;114897;1208;25654;-60
2022/11/20 12:22:18;;;;;;;;;20.00;17.00;;;;;;;;114800;1208;25292;-60
2022/11/20 12:25:01;;;;;;;;;22.00;13.00;;;;;;;;114886;1208;25108;-60
2022/11/20 12:28:08;;;;;;;;;21.00;15.00;;;;;;;;114818;1205;25119;-61
2022/11/20 12:31:02;;;;;;;;;28.00;16.50;;;;;;;;114843;1207;25312;-60
2022/11/20 12:34:02;;;;;;;;;20.50;14.00;;;;;;;;114861;1208;25029;-60
2022/11/20 12:36:33;;;;;;;;;16.00;15.00;;;;;;;;114853;1203;25758;-60
2022/11/20 12:39:10;;;;;;;;;20.50;16.00;;;;;;;;114816;1201;25151;-60
2022/11/20 12:45:32;;;;;;;;;15.00;12.50;;;;;;;;114876;1206;25124;-59
2022/11/20 12:48:13;;;;;;;;;18.00;15.00;;;;;;;;114655;1199;24730;-60
2022/11/20 12:50:51;;;;;;;;;22.00;18.00;;;;;;;;114613;1206;25674;-60
2022/11/20 12:53:45;;;;;;;;;18.00;16.33;;;;;;;;114858;1208;25027;-60
2022/11/20 12:56:41;;;;;;;;;17.00;13.50;;;;;;;;114891;1208;25050;-61
2022/11/20 12:59:48;;;;;;;;;20.00;18.00;;;;;;;;114910;1203;25186;-60
2022/11/20 13:02:45;;;;;;;;;21.50;14.50;;;;;;;;114915;1203;24937;-60
2022/11/20 13:05:22;;;;;;;;;19.67;17.67;;;;;;;;114866;1202;25867;-60
2022/11/20 13:07:53;;;;;;;;;22.00;14.00;;;;;;;;114802;1208;24778;-59
2022/11/20 13:10:31;;;;;;;;;15.50;15.50;;;;;;;;114845;1200;24766;-61
2022/11/20 13:13:12;;;;;;;;;18.00;14.00;;;;;;;;114788;1200;25945;-61
2022/11/20 13:15:55;;;;;;;;;14.00;14.00;;;;;;;;114836;1200;25084;-61
2022/11/20 13:18:24;;;;;;;;;6.50;5.50;;;;;;;;114818;1208;25575;-61
2022/11/20 13:20:53;;;;;;;;;18.50;12.00;;;;;;;;114799;1206;25567;-60
2022/11/20 13:23:28;;;;;;;;;12.50;11.00;;;;;;;;114828;1203;25518;-60
2022/11/20 13:26:05;;;;;;;;;15.00;13.00;;;;;;;;114847;1203;24832;-58
2022/11/20 13:28:34;;;;;;;;;17.00;12.00;;;;;;;;114833;1200;25084;-62
2022/11/20 13:31:03;;;;;;;;;20.00;13.00;;;;;;;;114790;1200;25625;-64
2022/11/20 13:33:32;;;;;;;;;14.00;14.00;;;;;;;;114867;1201;25874;-61
2022/11/20 13:36:06;;;;;;;;;18.00;13.00;;;;;;;;114864;1200;24995;-61
2022/11/20 13:38:48;;;;;;;;;14.00;14.00;;;;;;;;114874;1204;24782;-61
2022/11/20 13:41:27;;;;;;;;;19.00;17.67;;;;;;;;114886;1200;24695;-60
2022/11/20 13:44:23;;;;;;;;;17.50;14.50;;;;;;;;114895;1203;25384;-60
2022/11/20 13:46:52;;;;;;;;;13.33;10.00;;;;;;;;114843;1203;24981;-61
2022/11/20 13:49:33;;;;;;;;;20.00;14.00;;;;;;;;114827;1203;25234;-60
2022/11/20 13:52:30;;;;;;;;;15.50;12.50;;;;;;;;114853;1200;25016;-61
2022/11/20 13:55:17;;;;;;;;;15.00;14.00;;;;;;;;114836;1203;25193;-61
2022/11/20 13:58:09;;;;;;;;;20.50;14.50;;;;;;;;114892;1200;25269;-61
2022/11/20 14:00:50;;;;;;;;;16.00;15.00;;;;;;;;114940;1206;24867;-62
2022/11/20 14:03:21;;;;;;;;;18.00;14.00;;;;;;;;114885;1206;24968;-62
2022/11/20 14:06:29;;;;;;;;;14.00;12.75;;;;;;;;114794;1206;25482;-57
2022/11/20 14:08:58;;;;;;;;;13.00;12.00;;;;;;;;114861;1203;24860;-60
2022/11/20 14:11:28;;;;;;;;;17.00;11.00;;;;;;;;114848;1199;25424;-60
2022/11/20 14:14:00;;;;;;;;;13.00;11.00;;;;;;;;115237;1202;25416;-62
2022/11/20 14:16:34;;;;;;;;;11.50;10.50;;;;;;;;114783;1206;25121;-63
2022/11/20 14:19:20;;;;;;;;;19.50;15.00;;;;;;;;116762;1200;25074;-62
2022/11/20 14:21:53;;;;;;;;;16.00;13.00;;;;;;;;116791;1199;25560;-62
2022/11/20 14:24:24;;;;;;;;;13.00;11.00;;;;;;;;116785;1196;25127;-64
2022/11/20 14:26:53;;;;;;;;;14.00;12.00;;;;;;;;116769;1200;24823;-64
2022/11/20 14:29:27;;;;;;;;;16.00;12.00;;;;;;;;114764;1202;25766;-61
2022/11/20 14:31:56;;;;;;;;;15.50;12.00;;;;;;;;114692;1207;24828;-61
2022/11/20 14:34:30;;;;;;;;;16.50;13.50;;;;;;;;114872;1207;25125;-62
2022/11/20 14:37:03;;;;;;;;;13.50;13.50;;;;;;;;114877;1196;24664;-62
2022/11/20 14:39:37;;;;;;;;;12.50;12.50;;;;;;;;114871;1199;25340;-63
2022/11/20 14:42:16;;;;;;;;;12.00;12.00;;;;;;;;114904;1202;24917;-62
2022/11/20 14:44:45;;;;;;;;;10.00;8.50;;;;;;;;114894;1200;25572;-61
2022/11/20 14:47:17;;;;;;;;;18.00;11.00;;;;;;;;114888;1203;24907;-61
2022/11/20 14:49:45;;;;;;;;;12.00;9.00;;;;;;;;114844;1205;25291;-60
2022/11/20 14:52:17;;;;;;;;;12.00;10.00;;;;;;;;114735;1202;25649;-61
2022/11/20 14:54:51;;;;;;;;;15.00;11.00;;;;;;;;114750;1206;24745;-61
2022/11/20 14:57:34;;;;;;;;;17.00;14.00;;;;;;;;114870;1203;24829;-62
2022/11/20 15:00:09;;;;;;;;;10.00;9.50;;;;;;;;114824;1198;24967;-61
2022/11/20 15:02:42;;;;;;;;;11.50;9.50;;;;;;;;114850;1203;25703;-61
2022/11/20 15:05:11;;;;;;;;;10.50;10.00;;;;;;;;114922;1194;25382;-62